Time;durP1;ratioP1;P1;durP2;ratioP2;P2;SDS_P1;SDS_P2;PMS_P1;PMS_P2;Temp;Humidity;BMP_temperature;BMP_pressure;BME280_temperature;BME280_humidity;BME280_pressure;Samples;Min_cycle;Max_cycle;Signal;HPM_P1;HPM_P2
2023/04/23 00:01:53;;;;;;;;;;;;;;;19.61;45.42;100763.09;5132247;27;19915;-69
2023/04/23 00:04:18;;;;;;;;;;;;;;;19.60;45.36;100758.69;5125716;27;19920;-69
2023/04/23 00:06:44;;;;;;;;;;;;;;;19.59;45.30;100755.16;5116974;27;19912;-69
2023/04/23 00:09:09;;;;;;;;;;;;;;;19.60;45.15;100758.69;5112888;27;19920;-70
2023/04/23 00:11:35;;;;;;;;;;;;;;;19.58;45.19;100753.50;5127953;27;19922;-69
2023/04/23 00:14:00;;;;;;;;;;;;;;;19.57;45.45;100759.03;5112253;27;20479;-69
2023/04/23 00:16:25;;;;;;;;;;;;;;;19.56;45.18;100752.81;5115363;27;19915;-69
2023/04/23 00:18:50;;;;;;;;;;;;;;;19.56;45.41;100751.97;5133586;27;19938;-69
2023/04/23 00:21:16;;;;;;;;;;;;;;;19.55;45.19;100761.09;5117642;27;19923;-69
2023/04/23 00:23:41;;;;;;;;;;;;;;;19.54;45.37;100756.69;5131213;27;19916;-69
2023/04/23 00:26:06;;;;;;;;;;;;;;;19.54;45.12;100759.38;5122351;27;19946;-69
2023/04/23 00:28:31;;;;;;;;;;;;;;;19.52;45.31;100761.44;5135761;27;19915;-69
2023/04/23 00:30:56;;;;;;;;;;;;;;;19.52;45.11;100761.44;5130906;27;19915;-69
2023/04/23 00:33:21;;;;;;;;;;;;;;;19.51;45.26;100760.59;5135400;27;19918;-69
2023/04/23 00:35:47;;;;;;;;;;;;;;;19.50;45.37;100756.22;5129487;27;19947;-69
2023/04/23 00:38:12;;;;;;;;;;;;;;;19.49;45.24;100766.13;5130675;27;19982;-69
2023/04/23 00:40:37;;;;;;;;;;;;;;;19.48;45.19;100750.97;5131720;27;20042;-69
2023/04/23 00:43:03;;;;;;;;;;;;;;;19.48;45.07;100733.97;5114618;27;19920;-69
2023/04/23 00:45:28;;;;;;;;;;;;;;;19.46;45.43;100734.16;5130796;27;19911;-69
2023/04/23 00:47:53;;;;;;;;;;;;;;;19.45;45.30;100743.28;5116766;27;19982;-69
2023/04/23 00:50:19;;;;;;;;;;;;;;;19.46;45.18;100744.09;5124998;27;19911;-69
2023/04/23 00:52:45;;;;;;;;;;;;;;;19.44;45.12;100736.19;5133572;27;19938;-69
2023/04/23 00:55:10;;;;;;;;;;;;;;;19.43;45.06;100734.50;5137893;27;19916;-69
2023/04/23 00:57:35;;;;;;;;;;;;;;;19.42;45.39;100732.81;5111061;27;19916;-69
2023/04/23 01:00:01;;;;;;;;;;;;;;;19.42;45.04;100732.81;5134831;27;19916;-69
2023/04/23 01:02:27;;;;;;;;;;;;;;;19.41;45.28;100731.16;5112252;28;19919;-69
2023/04/23 01:04:53;;;;;;;;;;;;;;;19.40;45.08;100724.06;5131333;27;19998;-69
2023/04/23 01:07:19;;;;;;;;;;;;;;;19.39;45.17;100717.00;5126294;27;19920;-69
2023/04/23 01:09:44;;;;;;;;;;;;;;;19.38;45.14;100726.09;5131320;27;19918;-70
2023/04/23 01:12:09;;;;;;;;;;;;;;;19.38;45.23;100731.50;5111144;27;19911;-69
2023/04/23 01:14:35;;;;;;;;;;;;;;;19.37;45.03;100716.34;5098328;27;19920;-69
2023/04/23 01:17:01;;;;;;;;;;;;;;;19.37;45.35;100723.56;5115166;27;19922;-69
2023/04/23 01:19:26;;;;;;;;;;;;;;;19.35;45.23;100714.84;5131416;27;19943;-69
2023/04/23 01:21:52;;;;;;;;;;;;;;;19.34;44.98;100716.69;5136624;27;19915;-69
2023/04/23 01:24:17;;;;;;;;;;;;;;;19.34;45.30;100727.47;5124481;28;19916;-69
2023/04/23 01:26:42;;;;;;;;;;;;;;;19.33;45.31;100725.81;5135212;27;19951;-69
2023/04/23 01:29:08;;;;;;;;;;;;;;;19.33;45.27;100719.56;5114590;27;19916;-69
2023/04/23 01:31:33;;;;;;;;;;;;;;;19.32;45.14;100717.88;5129329;27;20006;-69
2023/04/23 01:33:59;;;;;;;;;;;;;;;19.31;45.16;100713.50;5131512;27;19918;-69
2023/04/23 01:36:24;;;;;;;;;;;;;;;19.29;45.02;100716.38;5130428;27;19915;-70
2023/04/23 01:38:50;;;;;;;;;;;;;;;19.29;45.16;100718.25;5129185;27;19915;-70
2023/04/23 01:41:15;;;;;;;;;;;;;;;19.29;45.20;100720.94;5131048;27;20380;-70
2023/04/23 01:43:43;;;;;;;;;;;;;;;19.27;45.18;100710.31;5135051;27;19911;-70
2023/04/23 01:46:09;;;;;;;;;;;;;;;19.27;45.15;100709.47;5124870;27;19916;-70
2023/04/23 01:48:34;;;;;;;;;;;;;;;19.26;44.98;100710.50;5136594;27;19938;-70
2023/04/23 01:50:59;;;;;;;;;;;;;;;19.25;45.21;100709.66;5114819;28;19912;-70
2023/04/23 01:53:25;;;;;;;;;;;;;;;19.25;45.05;100700.75;5131289;27;19912;-69
2023/04/23 01:55:50;;;;;;;;;;;;;;;19.24;45.18;100705.25;5135198;27;20395;-69
2023/04/23 01:58:15;;;;;;;;;;;;;;;19.22;45.17;100702.75;5112347;28;19919;-69
2023/04/23 02:00:41;;;;;;;;;;;;;;;19.22;45.19;100694.66;5112329;28;19922;-70
2023/04/23 02:03:06;;;;;;;;;;;;;;;19.20;45.07;100698.56;5129699;28;19912;-70
2023/04/23 02:05:32;;;;;;;;;;;;;;;19.20;45.05;100693.19;5131781;28;19915;-70
2023/04/23 02:07:57;;;;;;;;;;;;;;;19.19;45.01;100686.94;5125414;28;20001;-70
2023/04/23 02:10:22;;;;;;;;;;;;;;;19.19;45.13;100691.47;5134646;28;19919;-70
2023/04/23 02:12:47;;;;;;;;;;;;;;;19.18;45.09;100689.81;5127692;28;20241;-70
2023/04/23 02:15:13;;;;;;;;;;;;;;;19.17;45.17;100683.59;5134868;28;19943;-70
2023/04/23 02:17:38;;;;;;;;;;;;;;;19.16;45.05;100679.22;5114074;28;19924;-70
2023/04/23 02:20:05;;;;;;;;;;;;;;;19.15;45.14;100682.91;5131979;27;19915;-70
2023/04/23 02:22:30;;;;;;;;;;;;;;;19.15;44.96;100682.91;5141274;27;19947;-69
2023/04/23 02:24:55;;;;;;;;;;;;;;;19.15;45.04;100682.06;5135764;27;19915;-70
2023/04/23 02:27:20;;;;;;;;;;;;;;;19.14;45.23;100686.63;5133655;27;19918;-70
2023/04/23 02:29:46;;;;;;;;;;;;;;;19.13;45.20;100682.25;5134257;27;19947;-70
2023/04/23 02:32:11;;;;;;;;;;;;;;;19.13;45.24;100684.13;5134739;27;19963;-70
2023/04/23 02:34:36;;;;;;;;;;;;;;;19.12;45.23;100685.97;5119535;27;19912;-69
2023/04/23 02:37:03;;;;;;;;;;;;;;;19.12;45.07;100682.44;5135462;27;19912;-70
2023/04/23 02:39:29;;;;;;;;;;;;;;;19.11;44.94;100675.34;5133734;27;19923;-69
2023/04/23 02:41:55;;;;;;;;;;;;;;;19.10;44.94;100679.91;5129803;27;19919;-70
2023/04/23 02:44:20;;;;;;;;;;;;;;;19.10;45.01;100682.59;5137471;27;19951;-70
2023/04/23 02:46:46;;;;;;;;;;;;;;;19.09;45.34;100674.69;5133261;27;19916;-70
2023/04/23 02:49:11;;;;;;;;;;;;;;;19.08;45.14;100668.47;5141912;27;19954;-70
2023/04/23 02:51:36;;;;;;;;;;;;;;;19.09;45.19;100672.00;5135234;27;19911;-70
2023/04/23 02:54:02;;;;;;;;;;;;;;;19.07;44.96;100666.78;5115248;27;19918;-70
2023/04/23 02:56:28;;;;;;;;;;;;;;;19.08;44.95;100664.94;5136918;27;19916;-70
2023/04/23 02:58:53;;;;;;;;;;;;;;;19.06;45.15;100665.09;5134060;27;20018;-70
2023/04/23 03:01:18;;;;;;;;;;;;;;;19.07;45.16;100658.69;5132600;27;19924;-70
2023/04/23 03:03:43;;;;;;;;;;;;;;;19.05;45.02;100652.66;5134312;27;20352;-70
2023/04/23 03:06:08;;;;;;;;;;;;;;;19.05;45.27;100652.66;5114931;27;20598;-70
2023/04/23 03:08:34;;;;;;;;;;;;;;;19.05;45.08;100651.81;5132721;27;19915;-70
2023/04/23 03:10:59;;;;;;;;;;;;;;;19.03;45.15;100651.13;5138199;27;19916;-70
2023/04/23 03:13:25;;;;;;;;;;;;;;;19.02;45.09;100655.69;5132119;27;19952;-70
2023/04/23 03:15:50;;;;;;;;;;;;;;;19.03;45.00;100651.13;5140018;28;19911;-70
2023/04/23 03:18:15;;;;;;;;;;;;;;;19.02;44.96;100655.69;5135264;28;19920;-70
2023/04/23 03:20:41;;;;;;;;;;;;;;;19.02;44.91;100641.38;5131574;28;19915;-70
2023/04/23 03:23:06;;;;;;;;;;;;;;;19.00;45.13;100638.03;5119677;28;19922;-70
2023/04/23 03:25:32;;;;;;;;;;;;;;;19.00;45.12;100640.72;5132868;27;19972;-70
2023/04/23 03:27:57;;;;;;;;;;;;;;;18.99;45.04;100645.28;5130617;28;19947;-70
2023/04/23 03:30:22;;;;;;;;;;;;;;;18.98;45.12;100647.09;5130138;28;19911;-70
2023/04/23 03:32:48;;;;;;;;;;;;;;;18.97;45.12;100642.75;5133833;28;20399;-70
2023/04/23 03:35:13;;;;;;;;;;;;;;;18.97;45.11;100636.50;5127468;28;19918;-70
2023/04/23 03:37:39;;;;;;;;;;;;;;;18.96;45.12;100643.75;5134932;28;19915;-70
2023/04/23 03:40:06;;;;;;;;;;;;;;;18.97;45.11;100636.50;5132265;28;19916;-70
2023/04/23 03:42:32;;;;;;;;;;;;;;;18.96;44.99;100640.22;5135485;28;19911;-70
2023/04/23 03:44:57;;;;;;;;;;;;;;;18.96;44.92;100629.47;5135122;28;19918;-70
2023/04/23 03:47:23;;;;;;;;;;;;;;;18.94;44.93;100635.00;5113475;28;19916;-70
2023/04/23 03:49:48;;;;;;;;;;;;;;;18.94;45.09;100629.63;5135962;27;19964;-70
2023/04/23 03:52:13;;;;;;;;;;;;;;;18.94;44.84;100628.78;5130527;28;19904;-70
2023/04/23 03:54:38;;;;;;;;;;;;;;;18.93;45.13;100630.63;5130691;28;19976;-69
2023/04/23 03:57:03;;;;;;;;;;;;;;;18.94;45.03;100623.38;5133008;28;19912;-70
2023/04/23 03:59:28;;;;;;;;;;;;;;;18.92;45.15;100626.28;5132359;28;20288;-69
2023/04/23 04:01:54;;;;;;;;;;;;;;;18.92;44.92;100631.66;5130686;28;19915;-69
2023/04/23 04:04:19;;;;;;;;;;;;;;;18.91;45.14;100627.28;5113181;28;19911;-71
2023/04/23 04:06:44;;;;;;;;;;;;;;;18.91;45.21;100626.47;5133228;28;20348;-69
2023/04/23 04:09:10;;;;;;;;;;;;;;;18.91;45.05;100623.75;5130880;28;19912;-69
2023/04/23 04:11:35;;;;;;;;;;;;;;;18.90;45.05;100627.44;5139357;28;20388;-68
2023/04/23 04:14:00;;;;;;;;;;;;;;;18.90;45.02;100627.44;5069209;27;1745787;-69
2023/04/23 04:16:26;;;;;;;;;;;;;;;18.90;45.15;100624.75;5137241;27;19927;-69
2023/04/23 04:18:51;;;;;;;;;;;;;;;18.90;45.12;100622.06;5137308;27;19919;-69
2023/04/23 04:21:17;;;;;;;;;;;;;;;18.89;45.12;100618.53;5131258;27;19916;-69
2023/04/23 04:23:43;;;;;;;;;;;;;;;18.89;45.13;100615.00;5133993;27;19911;-69
2023/04/23 04:26:08;;;;;;;;;;;;;;;18.88;45.10;100616.03;5134039;27;19945;-69
2023/04/23 04:28:36;;;;;;;;;;;;;;;18.86;45.08;100610.81;5129958;27;20287;-69
2023/04/23 04:31:01;;;;;;;;;;;;;;;18.86;45.07;100610.81;5131482;27;19912;-69
2023/04/23 04:33:27;;;;;;;;;;;;;;;18.86;45.06;100601.88;5117665;27;19912;-69
2023/04/23 04:35:53;;;;;;;;;;;;;;;18.86;45.01;100609.97;5125731;27;19912;-69
2023/04/23 04:38:18;;;;;;;;;;;;;;;18.85;45.02;100608.28;5138151;27;19916;-68
2023/04/23 04:40:44;;;;;;;;;;;;;;;18.86;45.13;100609.97;5132176;27;19915;-67
2023/04/23 04:43:09;;;;;;;;;;;;;;;18.86;45.31;100609.97;5122537;27;19938;-70
2023/04/23 04:45:34;;;;;;;;;;;;;;;18.86;45.66;100608.13;5135598;27;19983;-70
2023/04/23 04:48:00;;;;;;;;;;;;;;;18.88;45.57;100618.72;5133901;27;19915;-68
2023/04/23 04:50:25;;;;;;;;;;;;;;;18.89;45.69;100623.91;5133768;27;20394;-68
2023/04/23 04:52:50;;;;;;;;;;;;;;;18.90;45.94;100624.75;5131449;27;19947;-68
2023/04/23 04:55:15;;;;;;;;;;;;;;;18.91;46.03;100623.75;5131213;27;20566;-68
2023/04/23 04:57:40;;;;;;;;;;;;;;;18.91;46.08;100627.28;5131744;27;19923;-68
2023/04/23 05:00:26;;;;;;;;;;;;;;;18.93;46.06;100622.56;5131518;27;19937;-67
2023/04/23 05:02:51;;;;;;;;;;;;;;;18.94;45.99;100626.91;5116815;27;19926;-66
2023/04/23 05:05:17;;;;;;;;;;;;;;;18.96;46.30;100633.00;5131206;27;20374;-66
2023/04/23 05:07:43;;;;;;;;;;;;;;;18.97;46.25;100629.28;5131573;27;19951;-72
2023/04/23 05:10:08;;;;;;;;;;;;;;;18.98;45.88;100625.56;5134893;27;19918;-71
2023/04/23 05:12:33;;;;;;;;;;;;;;;18.99;46.24;100629.13;5133373;27;19916;-71
2023/04/23 05:14:58;;;;;;;;;;;;;;;19.01;46.28;100627.06;5131838;27;19923;-72
2023/04/23 05:17:24;;;;;;;;;;;;;;;19.02;46.32;100617.97;5101612;28;19919;-71
2023/04/23 05:19:49;;;;;;;;;;;;;;;19.05;46.20;100616.78;5129874;27;19912;-71
2023/04/23 05:22:17;;;;;;;;;;;;;;;19.07;46.05;100622.81;5130305;27;19919;-71
2023/04/23 05:24:42;;;;;;;;;;;;;;;19.08;46.23;100621.81;5131534;27;20010;-68
2023/04/23 05:27:07;;;;;;;;;;;;;;;19.10;46.26;100625.16;5128477;27;19938;-69
2023/04/23 05:29:32;;;;;;;;;;;;;;;19.12;46.07;100625.84;5130801;27;20022;-69
2023/04/23 05:31:57;;;;;;;;;;;;;;;19.12;46.10;100621.28;5131947;27;20151;-69
2023/04/23 05:34:23;;;;;;;;;;;;;;;19.14;46.19;100627.34;5131626;27;19912;-69
2023/04/23 05:36:48;;;;;;;;;;;;;;;19.16;46.11;100638.78;5135599;27;20003;-69
2023/04/23 05:39:13;;;;;;;;;;;;;;;19.19;46.19;100641.09;5134173;27;19912;-69
2023/04/23 05:41:38;;;;;;;;;;;;;;;19.20;46.10;100637.41;5133569;27;19924;-69
2023/04/23 05:44:03;;;;;;;;;;;;;;;19.21;46.11;100633.69;5132942;27;20014;-70
2023/04/23 05:46:28;;;;;;;;;;;;;;;19.23;46.04;100628.13;5129830;27;19938;-68
2023/04/23 05:48:54;;;;;;;;;;;;;;;19.26;45.74;100618.84;5129640;27;20276;-70
2023/04/23 05:51:19;;;;;;;;;;;;;;;19.27;45.82;100621.34;5133934;27;20352;-69
2023/04/23 05:53:44;;;;;;;;;;;;;;;19.29;45.84;100616.66;5130017;27;19912;-69
2023/04/23 05:56:09;;;;;;;;;;;;;;;19.31;45.50;100617.28;5128599;28;19916;-71
2023/04/23 05:58:35;;;;;;;;;;;;;;;19.33;45.79;100617.97;5129656;27;19951;-71
2023/04/23 06:01:00;;;;;;;;;;;;;;;19.35;45.49;100620.47;5132154;27;20071;-71
2023/04/23 06:03:25;;;;;;;;;;;;;;;19.37;45.69;100626.50;5109919;28;20001;-71
2023/04/23 06:05:50;;;;;;;;;;;;;;;19.39;45.46;100627.19;5132496;28;20276;-73
2023/04/23 06:08:16;;;;;;;;;;;;;;;19.40;45.33;100629.69;5133557;28;19916;-73
2023/04/23 06:10:41;;;;;;;;;;;;;;;19.41;45.52;100615.22;5131138;28;19944;-72
2023/04/23 06:13:06;;;;;;;;;;;;;;;19.44;45.32;100619.41;5130115;27;19927;-72
2023/04/23 06:15:31;;;;;;;;;;;;;;;19.44;45.37;100622.94;5130929;28;19916;-73
2023/04/23 06:17:56;;;;;;;;;;;;;;;19.46;45.18;100620.06;5130274;28;19933;-73
2023/04/23 06:20:21;;;;;;;;;;;;;;;19.47;45.41;100617.19;5130964;28;19916;-73
2023/04/23 06:22:47;;;;;;;;;;;;;;;19.49;45.19;100617.00;5111048;28;19965;-72
2023/04/23 06:25:12;;;;;;;;;;;;;;;19.52;45.01;100632.81;5129083;27;19948;-72
2023/04/23 06:27:37;;;;;;;;;;;;;;;19.52;44.92;100616.66;5129978;28;19921;-73
2023/04/23 06:30:02;;;;;;;;;;;;;;;19.54;45.08;100613.75;5113995;28;20583;-72
2023/04/23 06:32:28;;;;;;;;;;;;;;;19.55;44.83;100610.91;5115813;28;19994;-72
2023/04/23 06:34:53;;;;;;;;;;;;;;;19.57;44.82;100616.94;5132300;28;19915;-73
2023/04/23 06:37:18;;;;;;;;;;;;;;;19.58;44.91;100602.47;5133417;28;19915;-75
2023/04/23 06:39:43;;;;;;;;;;;;;;;19.60;44.72;100600.41;5131689;28;19994;-73
2023/04/23 06:42:08;;;;;;;;;;;;;;;19.61;44.83;100602.09;5133854;28;19923;-72
2023/04/23 06:44:34;;;;;;;;;;;;;;;19.62;45.05;100609.16;5130715;28;20007;-74
2023/04/23 06:46:59;;;;;;;;;;;;;;;19.66;44.93;100610.50;5128891;28;20249;-73
2023/04/23 06:49:24;;;;;;;;;;;;;;;19.68;45.01;100605.78;5133788;27;19939;-71
2023/04/23 06:51:49;;;;;;;;;;;;;;;19.74;44.89;100609.59;5132838;27;19912;-73
2023/04/23 06:54:14;;;;;;;;;;;;;;;19.80;44.57;100598.09;5130353;28;19912;-70
2023/04/23 06:56:40;;;;;;;;;;;;;;;19.86;44.70;100591.13;5130237;28;19960;-73
2023/04/23 06:59:05;;;;;;;;;;;;;;;19.89;44.62;100591.59;5127148;28;19954;-74
2023/04/23 07:01:30;;;;;;;;;;;;;;;19.92;44.51;100582.28;5135595;28;19916;-73
2023/04/23 07:03:55;;;;;;;;;;;;;;;19.93;44.27;100587.50;5133015;28;19916;-73
2023/04/23 07:06:21;;;;;;;;;;;;;;;19.95;44.27;100579.22;5138619;27;19919;-73
2023/04/23 07:08:46;;;;;;;;;;;;;;;19.95;44.28;100580.06;5134857;27;19943;-73
2023/04/23 07:11:11;;;;;;;;;;;;;;;19.96;44.37;100579.06;5132879;27;19982;-73
2023/04/23 07:13:36;;;;;;;;;;;;;;;19.97;44.38;100577.19;5137320;27;19920;-74
2023/04/23 07:16:02;;;;;;;;;;;;;;;19.97;44.24;100575.34;5132587;27;19919;-74
2023/04/23 07:18:27;;;;;;;;;;;;;;;19.98;44.37;100577.00;5132505;27;19919;-73
2023/04/23 07:20:52;;;;;;;;;;;;;;;20.00;44.29;100578.69;5131849;27;19920;-74
2023/04/23 07:23:17;;;;;;;;;;;;;;;20.00;44.31;100581.38;5134643;27;19919;-73
2023/04/23 07:25:43;;;;;;;;;;;;;;;20.01;44.04;100586.59;5136021;27;19923;-72
2023/04/23 07:28:08;;;;;;;;;;;;;;;20.03;44.28;100586.41;5135256;27;19916;-73
2023/04/23 07:30:33;;;;;;;;;;;;;;;20.04;44.14;100574.59;5135327;27;19911;-73
2023/04/23 07:32:58;;;;;;;;;;;;;;;20.05;44.14;100578.94;5134716;27;20389;-73
2023/04/23 07:35:23;;;;;;;;;;;;;;;20.06;44.19;100578.78;5133164;27;19937;-73
2023/04/23 07:37:54;;;;;;;;;;;;;;;20.08;44.04;100602.88;5137054;27;19923;-74
2023/04/23 07:40:20;;;;;;;;;;;;;;;20.09;44.02;100578.44;5137362;27;19916;-73
2023/04/23 07:42:46;;;;;;;;;;;;;;;20.10;44.13;100568.47;5131256;27;19982;-74
2023/04/23 07:45:11;;;;;;;;;;;;;;;20.12;44.24;100566.41;5133276;27;19919;-73
2023/04/23 07:47:36;;;;;;;;;;;;;;;20.13;44.29;100559.97;5131836;27;19939;-74
2023/04/23 07:50:01;;;;;;;;;;;;;;;20.15;44.30;100552.56;5135059;27;19912;-73
2023/04/23 07:52:27;;;;;;;;;;;;;;;20.15;44.27;100550.69;5134587;27;19919;-72
2023/04/23 07:54:52;;;;;;;;;;;;;;;20.17;44.37;100553.19;5134738;27;19918;-69
2023/04/23 07:57:17;;;;;;;;;;;;;;;20.18;44.24;100553.03;5133518;27;19920;-68
2023/04/23 07:59:42;;;;;;;;;;;;;;;20.19;44.21;100549.28;5135179;27;20395;-69
2023/04/23 08:02:08;;;;;;;;;;;;;;;20.20;44.25;100556.34;5121644;27;19911;-68
2023/04/23 08:04:33;;;;;;;;;;;;;;;20.23;44.30;100560.56;5132962;27;20495;-69
2023/04/23 08:06:58;;;;;;;;;;;;;;;20.22;44.33;100554.31;5133724;27;19972;-69
2023/04/23 08:09:23;;;;;;;;;;;;;;;20.23;44.70;100549.75;5131119;27;19918;-69
2023/04/23 08:11:48;;;;;;;;;;;;;;;20.23;44.69;100557.88;5134923;27;19915;-69
2023/04/23 08:14:14;;;;;;;;;;;;;;;20.24;44.76;100551.44;5133477;27;19920;-70
2023/04/23 08:16:39;;;;;;;;;;;;;;;20.25;44.64;100552.25;5131077;27;20335;-69
2023/04/23 08:19:04;;;;;;;;;;;;;;;20.25;44.50;100539.59;5133480;27;20407;-69
2023/04/23 08:21:31;;;;;;;;;;;;;;;20.26;44.38;100543.97;5131417;27;19934;-69
2023/04/23 08:23:56;;;;;;;;;;;;;;;20.28;44.81;100546.50;5115193;27;19911;-69
2023/04/23 08:26:22;;;;;;;;;;;;;;;20.27;44.71;100544.84;5121887;27;19969;-69
2023/04/23 08:28:47;;;;;;;;;;;;;;;20.29;44.66;100545.47;5134130;27;19998;-69
2023/04/23 08:31:12;;;;;;;;;;;;;;;20.29;44.62;100548.16;5131923;27;19951;-72
2023/04/23 08:33:38;;;;;;;;;;;;;;;20.30;44.47;100547.13;5112896;27;19944;-69
2023/04/23 08:36:03;;;;;;;;;;;;;;;20.31;44.49;100548.84;5133511;27;19912;-75
2023/04/23 08:38:28;;;;;;;;;;;;;;;20.31;44.51;100543.44;5111864;28;19920;-72
2023/04/23 08:40:55;;;;;;;;;;;;;;;20.32;44.58;100547.81;5131565;27;19958;-73
2023/04/23 08:43:21;;;;;;;;;;;;;;;20.33;44.76;100549.47;5133422;27;19916;-71
2023/04/23 08:45:47;;;;;;;;;;;;;;;20.33;44.63;100553.00;5110222;28;19964;-72
2023/04/23 08:48:12;;;;;;;;;;;;;;;20.34;44.57;100554.69;5113422;27;20363;-72
2023/04/23 08:50:38;;;;;;;;;;;;;;;20.36;44.62;100549.13;5135307;27;19915;-72
2023/04/23 08:53:05;;;;;;;;;;;;;;;20.37;44.69;100553.47;5133350;27;19912;-72
2023/04/23 08:55:30;;;;;;;;;;;;;;;20.38;44.41;100547.88;5120728;27;19923;-71
2023/04/23 08:57:56;;;;;;;;;;;;;;;20.38;44.76;100544.34;5123893;28;20283;-72
2023/04/23 09:00:25;;;;;;;;;;;;;;;20.39;44.70;100544.19;5113986;27;19922;-72
2023/04/23 09:02:50;;;;;;;;;;;;;;;20.41;44.63;100541.28;5132246;27;19926;-72
2023/04/23 09:05:15;;;;;;;;;;;;;;;20.42;44.47;100546.47;5132172;27;19942;-72
2023/04/23 09:07:41;;;;;;;;;;;;;;;20.43;44.39;100547.31;5134687;27;19916;-72
2023/04/23 09:10:06;;;;;;;;;;;;;;;20.45;44.37;100534.47;5114151;27;19936;-72
2023/04/23 09:12:34;;;;;;;;;;;;;;;20.45;44.58;100526.38;5114195;28;19916;-71
2023/04/23 09:14:59;;;;;;;;;;;;;;;20.49;44.49;100532.28;5125240;27;19942;-73
2023/04/23 09:17:26;;;;;;;;;;;;;;;20.49;44.71;100527.72;5117101;27;19933;-72
2023/04/23 09:19:51;;;;;;;;;;;;;;;20.50;44.63;100528.53;5129230;27;19987;-71
2023/04/23 09:22:35;;;;;;;;;;;;;;;20.53;44.63;100528.19;5108200;27;19950;-72
2023/04/23 09:25:01;;;;;;;;;;;;;;;20.54;44.68;100530.69;5135153;27;19911;-72
2023/04/23 09:27:26;;;;;;;;;;;;;;;20.55;44.39;100526.94;5133015;27;19965;-72
2023/04/23 09:29:54;;;;;;;;;;;;;;;20.54;44.80;100517.19;5125082;27;19911;-72
2023/04/23 09:32:20;;;;;;;;;;;;;;;20.55;44.80;100524.25;5130364;27;20364;-73
2023/04/23 09:34:46;;;;;;;;;;;;;;;20.55;44.53;100505.34;5112921;27;19915;-72
2023/04/23 09:37:11;;;;;;;;;;;;;;;20.55;44.71;100505.34;5110876;28;19912;-72
2023/04/23 09:39:36;;;;;;;;;;;;;;;20.55;44.80;100510.75;5131025;27;19919;-72
2023/04/23 09:42:02;;;;;;;;;;;;;;;20.55;44.74;100504.50;5112771;28;19960;-73
2023/04/23 09:44:30;;;;;;;;;;;;;;;20.56;44.57;100503.47;5131496;27;19912;-72
2023/04/23 09:46:55;;;;;;;;;;;;;;;20.56;44.73;100506.16;5128083;27;19911;-73
2023/04/23 09:49:20;;;;;;;;;;;;;;;20.57;44.62;100507.88;5115080;27;19960;-72
2023/04/23 09:51:46;;;;;;;;;;;;;;;20.56;44.83;100501.63;5133840;27;19920;-72
2023/04/23 09:54:17;;;;;;;;;;;;;;;20.58;44.81;100501.44;5130528;28;19916;-72
2023/04/23 09:56:42;;;;;;;;;;;;;;;20.57;44.80;100497.06;5137991;27;19922;-73
2023/04/23 09:59:24;;;;;;;;;;;;;;;20.57;44.58;100497.91;5129074;27;19912;-73
2023/04/23 10:01:49;;;;;;;;;;;;;;;20.58;44.73;100496.03;5124933;28;19919;-73
2023/04/23 10:04:19;;;;;;;;;;;;;;;20.59;44.83;100489.59;5123018;28;20006;-73
2023/04/23 10:06:45;;;;;;;;;;;;;;;20.61;44.63;100492.97;5131036;27;20026;-73
2023/04/23 10:09:10;;;;;;;;;;;;;;;20.61;44.86;100495.66;5130611;28;19911;-73
2023/04/23 10:11:35;;;;;;;;;;;;;;;20.61;44.61;100496.50;5130389;28;19943;-73
2023/04/23 10:14:01;;;;;;;;;;;;;;;20.63;44.88;100488.19;5128851;28;19919;-73
2023/04/23 10:16:26;;;;;;;;;;;;;;;20.63;44.53;100490.88;5112223;28;20322;-73
2023/04/23 10:18:52;;;;;;;;;;;;;;;20.63;44.55;100497.13;5133841;28;20372;-72
2023/04/23 10:21:17;;;;;;;;;;;;;;;20.64;44.73;100492.56;5112335;28;19916;-72
2023/04/23 10:23:43;;;;;;;;;;;;;;;20.65;44.81;100488.84;5117659;28;19932;-72
2023/04/23 10:26:08;;;;;;;;;;;;;;;20.65;44.75;100495.09;5131665;27;19911;-73
2023/04/23 10:28:33;;;;;;;;;;;;;;;20.66;44.71;100498.63;5125605;28;19922;-73
2023/04/23 10:30:58;;;;;;;;;;;;;;;20.66;44.80;100487.81;5131853;28;19920;-73
2023/04/23 10:33:24;;;;;;;;;;;;;;;20.66;44.74;100488.66;5121373;28;19943;-73
2023/04/23 10:35:49;;;;;;;;;;;;;;;20.69;44.70;100480.16;5113694;28;20023;-73
2023/04/23 10:38:15;;;;;;;;;;;;;;;20.69;44.82;100479.34;5110304;28;19926;-71
2023/04/23 10:40:40;;;;;;;;;;;;;;;20.71;44.62;100475.41;5112065;28;19916;-73
2023/04/23 10:43:05;;;;;;;;;;;;;;;20.71;44.21;100475.41;5130368;27;19937;-73
2023/04/23 10:45:31;;;;;;;;;;;;;;;20.72;44.64;100473.53;5137599;27;19968;-73
2023/04/23 10:47:56;;;;;;;;;;;;;;;20.74;44.70;100467.97;5125927;28;19973;-74
2023/04/23 10:50:29;;;;;;;;;;;;;;;20.76;44.30;100466.72;5130545;27;19915;-75
2023/04/23 10:52:55;;;;;;;;;;;;;;;20.77;44.25;100459.44;5131966;27;19912;-72
2023/04/23 10:55:28;;;;;;;;;;;;;;;20.80;44.67;100459.06;5128239;27;20351;-71
2023/04/23 10:58:03;;;;;;;;;;;;;;;20.81;44.39;100458.88;5119107;27;19951;-74
2023/04/23 11:00:29;;;;;;;;;;;;;;;20.82;44.84;100460.56;5132836;27;19923;-74
2023/04/23 11:02:55;;;;;;;;;;;;;;;20.84;45.17;100457.66;5113637;27;19912;-72
2023/04/23 11:05:20;;;;;;;;;;;;;;;20.85;45.06;100453.91;5132455;27;19931;-72
2023/04/23 11:08:03;;;;;;;;;;;;;;;20.85;45.23;100453.91;5133409;27;19919;-73
2023/04/23 11:10:30;;;;;;;;;;;;;;;20.86;45.42;100447.50;5132975;27;19915;-74
2023/04/23 11:12:55;;;;;;;;;;;;;;;20.89;45.53;100457.91;5136407;27;19919;-73
2023/04/23 11:15:20;;;;;;;;;;;;;;;20.89;45.81;100450.63;5132772;27;19918;-73
2023/04/23 11:17:47;;;;;;;;;;;;;;;20.91;45.75;100451.31;5137282;27;19918;-72
2023/04/23 11:20:12;;;;;;;;;;;;;;;20.94;45.83;100441.94;5135488;27;20716;-73
2023/04/23 11:22:44;;;;;;;;;;;;;;;20.96;45.92;100453.41;5133881;27;19956;-74
2023/04/23 11:25:10;;;;;;;;;;;;;;;20.98;45.89;100440.53;5120891;27;20052;-73
2023/04/23 11:27:39;;;;;;;;;;;;;;;21.01;45.83;100444.72;5133581;27;19911;-74
2023/04/23 11:30:05;;;;;;;;;;;;;;;21.01;46.07;100434.75;5134140;27;19947;-74
2023/04/23 11:32:31;;;;;;;;;;;;;;;21.04;45.92;100430.84;5132964;27;19927;-74
2023/04/23 11:34:56;;;;;;;;;;;;;;;21.06;46.28;100426.88;5132194;27;19912;-74
2023/04/23 11:37:21;;;;;;;;;;;;;;;21.08;46.39;100426.72;5133001;27;19927;-72
2023/04/23 11:39:48;;;;;;;;;;;;;;;21.08;46.15;100416.75;5131521;27;19920;-71
2023/04/23 11:42:13;;;;;;;;;;;;;;;21.09;46.19;100421.09;5131827;27;19946;-73
2023/04/23 11:44:42;;;;;;;;;;;;;;;21.09;46.41;100414.88;5132815;27;19915;-72
2023/04/23 11:47:09;;;;;;;;;;;;;;;21.11;46.23;100415.50;5135752;27;19912;-68
2023/04/23 11:49:36;;;;;;;;;;;;;;;21.11;46.10;100410.09;5135211;27;19911;-71
2023/04/23 11:52:01;;;;;;;;;;;;;;;21.10;46.33;100408.41;5133211;27;19983;-67
2023/04/23 11:54:27;;;;;;;;;;;;;;;21.10;46.31;100411.13;5131628;27;19934;-69
2023/04/23 11:56:52;;;;;;;;;;;;;;;21.09;46.20;100404.88;5136705;27;19936;-71
2023/04/23 11:59:17;;;;;;;;;;;;;;;21.10;46.34;100403.00;5132463;27;19912;-71
2023/04/23 12:01:44;;;;;;;;;;;;;;;21.09;46.34;100399.47;5132613;27;19919;-69
2023/04/23 12:04:12;;;;;;;;;;;;;;;21.08;46.02;100391.56;5134234;27;19915;-69
2023/04/23 12:06:39;;;;;;;;;;;;;;;21.09;46.35;100387.84;5134362;27;19911;-69
2023/04/23 12:09:04;;;;;;;;;;;;;;;21.08;46.04;100389.72;5130827;27;19915;-69
2023/04/23 12:11:29;;;;;;;;;;;;;;;21.08;45.88;100388.88;5125725;27;20265;-69
2023/04/23 12:13:54;;;;;;;;;;;;;;;21.08;46.09;100380.75;5136457;27;19931;-69
2023/04/23 12:16:32;;;;;;;;;;;;;;;21.09;46.07;100374.31;5114526;27;19969;-69
2023/04/23 12:18:57;;;;;;;;;;;;;;;21.08;46.00;100373.50;5140547;27;19907;-69
2023/04/23 12:21:22;;;;;;;;;;;;;;;21.08;45.96;100365.38;5112640;28;19915;-69
2023/04/23 12:23:50;;;;;;;;;;;;;;;21.07;45.84;100362.84;5134525;27;19911;-70
2023/04/23 12:26:15;;;;;;;;;;;;;;;21.07;45.66;100357.44;5134498;27;20007;-70
2023/04/23 12:28:50;;;;;;;;;;;;;;;21.07;45.60;100366.41;5132560;27;19915;-70